createdAt,value
2023-05-19T00:01:32.240Z,98638.72
2023-05-19T00:04:03.035Z,98631.22
2023-05-19T00:06:34.304Z,98642.44
2023-05-19T00:09:06.314Z,98629.53
2023-05-19T00:11:36.291Z,98637.53
2023-05-19T00:14:05.094Z,98635.97
2023-05-19T00:16:32.374Z,98633.31
2023-05-19T00:19:02.917Z,98627.72
2023-05-19T00:21:31.503Z,98625.22
2023-05-19T00:23:59.081Z,98630.81
2023-05-19T00:26:27.325Z,98630.63
2023-05-19T00:28:55.393Z,98620.66
2023-05-19T00:31:22.331Z,98621.56
2023-05-19T00:33:49.267Z,98619.00
2023-05-19T00:36:16.373Z,98611.41
2023-05-19T00:38:43.457Z,98612.00
2023-05-19T00:41:14.014Z,98608.97
2023-05-19T00:43:41.239Z,98613.00
2023-05-19T00:46:08.201Z,98611.16
2023-05-19T00:48:44.896Z,98610.50
2023-05-19T00:51:14.910Z,98619.97
2023-05-19T00:53:42.006Z,98618.91
2023-05-19T00:56:08.913Z,98606.06
2023-05-19T00:58:36.566Z,98606.63
2023-05-19T01:01:04.761Z,98618.06
2023-05-19T01:03:35.207Z,98610.47
2023-05-19T01:06:06.092Z,98608.38
2023-05-19T01:08:37.625Z,98613.22
2023-05-19T01:11:06.924Z,98605.78
2023-05-19T01:13:35.095Z,98611.63
2023-05-19T01:16:13.249Z,98619.84
2023-05-19T01:18:47.785Z,98625.97
2023-05-19T01:21:44.687Z,98617.41
2023-05-19T01:24:47.028Z,98625.22
2023-05-19T01:27:16.954Z,98620.25
2023-05-19T01:30:16.364Z,98622.06
2023-05-19T01:32:44.331Z,98625.59
2023-05-19T01:35:13.204Z,98618.00
2023-05-19T01:37:41.528Z,98617.78
2023-05-19T01:40:09.264Z,98616.03
2023-05-19T01:42:40.109Z,98618.56
2023-05-19T01:45:11.766Z,98612.66
2023-05-19T01:47:42.473Z,98611.88
2023-05-19T01:50:09.930Z,98611.34
2023-05-19T01:52:37.029Z,98605.75
2023-05-19T01:55:04.189Z,98610.69
2023-05-19T01:57:37.743Z,98608.47
2023-05-19T02:00:23.420Z,98604.19
2023-05-19T02:03:05.660Z,98608.84
2023-05-19T02:05:44.460Z,98604.41
2023-05-19T02:08:14.668Z,98605.66
2023-05-19T02:10:43.801Z,98603.53
2023-05-19T02:13:11.747Z,98608.06
2023-05-19T02:15:42.379Z,98601.25
2023-05-19T02:18:12.842Z,98595.88
2023-05-19T02:20:40.243Z,98601.88
2023-05-19T02:23:07.510Z,98595.50
2023-05-19T02:25:34.563Z,98595.00
2023-05-19T02:28:01.518Z,98602.72
2023-05-19T02:30:28.511Z,98596.72
2023-05-19T02:32:55.630Z,98608.31
2023-05-19T02:35:25.569Z,98601.91
2023-05-19T02:37:52.665Z,98610.47
2023-05-19T02:40:19.889Z,98614.81
2023-05-19T02:42:46.821Z,98614.63
2023-05-19T02:45:14.839Z,98603.31
2023-05-19T02:47:41.832Z,98608.59
2023-05-19T02:50:19.545Z,98612.34
2023-05-19T02:52:46.446Z,98611.69
2023-05-19T02:55:17.224Z,98610.28
2023-05-19T02:57:44.365Z,98608.50
2023-05-19T03:00:12.120Z,98620.31
2023-05-19T03:02:42.137Z,98621.34
2023-05-19T03:05:10.421Z,98618.31
2023-05-19T03:07:37.449Z,98620.94
2023-05-19T03:10:08.878Z,98621.28
2023-05-19T03:12:35.824Z,98621.72
2023-05-19T03:15:02.886Z,98619.03
2023-05-19T03:17:33.934Z,98611.91
2023-05-19T03:20:01.720Z,98616.06
2023-05-19T03:22:28.658Z,98617.06
2023-05-19T03:24:56.064Z,98619.78
2023-05-19T03:27:22.970Z,98618.22
2023-05-19T03:29:50.024Z,98624.19
2023-05-19T03:32:17.078Z,98626.25
2023-05-19T03:34:44.036Z,98613.06
2023-05-19T03:37:11.117Z,98613.28
2023-05-19T03:39:38.174Z,98615.44
2023-05-19T03:42:05.346Z,98623.97
2023-05-19T03:44:32.323Z,98616.22
2023-05-19T03:46:59.235Z,98624.03
2023-05-19T03:49:32.429Z,98625.75
2023-05-19T03:51:59.484Z,98613.09
2023-05-19T03:54:26.376Z,98619.81
2023-05-19T03:56:53.330Z,98620.63
2023-05-19T03:59:21.412Z,98619.66
2023-05-19T04:01:48.939Z,98621.72
2023-05-19T04:04:15.967Z,98623.25
2023-05-19T04:06:42.977Z,98615.56
2023-05-19T04:09:14.172Z,98625.97
2023-05-19T04:11:41.586Z,98626.47
2023-05-19T04:14:08.795Z,98642.47
2023-05-19T04:16:36.115Z,98630.13
2023-05-19T04:19:03.111Z,98632.41
2023-05-19T04:21:30.047Z,98645.28
2023-05-19T04:23:59.388Z,98643.50
2023-05-19T04:26:27.035Z,98651.66
2023-05-19T04:28:56.765Z,98643.69
2023-05-19T04:31:24.377Z,98645.72
2023-05-19T04:33:53.661Z,98656.94
2023-05-19T04:36:21.887Z,98660.44
2023-05-19T04:38:55.057Z,98659.59
2023-05-19T04:41:22.051Z,98672.22
2023-05-19T04:43:50.324Z,98678.22
2023-05-19T04:46:17.286Z,98677.94
2023-05-19T04:48:44.259Z,98672.50
2023-05-19T04:51:14.470Z,98676.63
2023-05-19T04:53:42.498Z,98677.50
2023-05-19T04:56:09.903Z,98675.97
2023-05-19T04:58:39.690Z,98679.56
2023-05-19T05:01:09.752Z,98676.91
2023-05-19T05:03:36.917Z,98681.81
2023-05-19T05:06:04.725Z,98684.84
2023-05-19T05:08:51.164Z,98683.97
2023-05-19T05:11:21.474Z,98683.50
2023-05-19T05:13:48.788Z,98687.25
2023-05-19T05:16:17.048Z,98682.34
2023-05-19T05:18:57.749Z,98691.97
2023-05-19T05:21:25.090Z,98691.78
2023-05-19T05:23:52.829Z,98692.81
2023-05-19T05:26:21.564Z,98694.06
2023-05-19T05:29:12.402Z,98701.72
2023-05-19T05:31:39.322Z,98701.28
2023-05-19T05:34:06.212Z,98698.47
2023-05-19T05:36:35.103Z,98699.50
2023-05-19T05:39:38.164Z,98703.13
2023-05-19T05:42:05.258Z,98704.63
2023-05-19T05:44:32.204Z,98701.28
2023-05-19T05:46:59.381Z,98704.53
2023-05-19T05:49:27.597Z,98707.78
2023-05-19T05:54:28.966Z,98705.59
2023-05-19T05:56:56.084Z,98714.69
2023-05-19T05:59:36.939Z,98711.03
2023-05-19T06:02:09.447Z,98707.09
2023-05-19T06:04:43.012Z,98709.78
2023-05-19T06:07:10.470Z,98708.97
2023-05-19T06:09:39.414Z,98702.97
2023-05-19T06:12:10.986Z,98714.44
2023-05-19T06:14:38.480Z,98715.47
2023-05-19T06:17:05.567Z,98721.78
2023-05-19T06:19:32.606Z,98720.28
2023-05-19T06:21:59.498Z,98720.91
2023-05-19T06:24:27.111Z,98732.94
2023-05-19T06:26:54.006Z,98730.38
2023-05-19T06:29:20.872Z,98726.59
2023-05-19T06:31:47.972Z,98737.00
2023-05-19T06:34:17.800Z,98729.47
2023-05-19T06:36:44.777Z,98731.38
2023-05-19T06:39:11.679Z,98735.75
2023-05-19T06:41:38.559Z,98739.81
2023-05-19T06:44:08.157Z,98738.69
2023-05-19T06:46:35.268Z,98732.69
2023-05-19T06:49:02.215Z,98735.84
2023-05-19T06:51:53.737Z,98729.59
2023-05-19T06:54:24.402Z,98735.25
2023-05-19T06:57:05.194Z,98739.19
2023-05-19T06:59:33.119Z,98743.94
2023-05-19T07:02:00.492Z,98728.63
2023-05-19T07:04:27.638Z,98745.91
2023-05-19T07:06:55.215Z,98738.94
2023-05-19T07:09:23.175Z,98733.22
2023-05-19T07:11:50.089Z,98750.28
2023-05-19T07:14:17.019Z,98744.22
2023-05-19T07:16:44.065Z,98742.84
2023-05-19T07:19:12.139Z,98754.56
2023-05-19T07:21:39.046Z,98749.31
2023-05-19T07:24:06.369Z,98743.81
2023-05-19T07:26:33.312Z,98742.87
2023-05-19T07:29:01.288Z,98737.34
2023-05-19T07:31:28.264Z,98735.81
2023-05-19T07:33:55.174Z,98739.03
2023-05-19T07:36:22.734Z,98735.87
2023-05-19T07:38:49.930Z,98742.53
2023-05-19T07:41:16.856Z,98734.09
2023-05-19T07:43:43.847Z,98745.66
2023-05-19T07:46:13.290Z,98739.34
2023-05-19T07:48:51.417Z,98732.41
2023-05-19T07:51:19.580Z,98735.28
2023-05-19T07:53:47.305Z,98736.97
2023-05-19T07:56:14.376Z,98731.84
2023-05-19T07:58:41.723Z,98729.97
2023-05-19T08:01:08.636Z,98725.09
2023-05-19T08:03:35.705Z,98727.56
2023-05-19T08:06:03.125Z,98732.12
2023-05-19T08:08:30.166Z,98725.00
2023-05-19T08:10:57.097Z,98729.03
2023-05-19T08:13:24.000Z,98724.44
2023-05-19T08:15:51.131Z,98724.84
2023-05-19T08:18:18.066Z,98734.28
2023-05-19T08:20:46.457Z,98728.13
2023-05-19T08:23:13.463Z,98733.28
2023-05-19T08:25:40.899Z,98721.72
2023-05-19T08:28:08.783Z,98722.84
2023-05-19T08:30:35.776Z,98718.59
2023-05-19T08:33:02.934Z,98728.66
2023-05-19T08:35:29.844Z,98733.84
2023-05-19T08:37:56.922Z,98729.06
2023-05-19T08:40:23.993Z,98728.47
2023-05-19T08:42:51.476Z,98726.06
2023-05-19T08:45:18.377Z,98722.59
2023-05-19T08:47:48.240Z,98724.22
2023-05-19T08:50:23.207Z,98730.25
2023-05-19T08:53:01.720Z,98727.28
2023-05-19T08:55:34.279Z,98729.06
2023-05-19T08:58:02.371Z,98724.06
2023-05-19T09:00:30.474Z,98721.16
2023-05-19T09:03:06.054Z,98722.88
2023-05-19T09:05:44.595Z,98713.59
2023-05-19T09:08:11.696Z,98718.09
2023-05-19T09:10:38.640Z,98709.59
2023-05-19T09:13:05.572Z,98706.00
2023-05-19T09:15:34.492Z,98705.47
2023-05-19T09:18:14.560Z,98704.44
2023-05-19T09:20:43.322Z,98706.47
2023-05-19T09:23:15.247Z,98698.69
2023-05-19T09:25:49.971Z,98701.88
2023-05-19T09:28:33.340Z,98690.44
2023-05-19T09:31:01.326Z,98693.09
2023-05-19T09:33:28.952Z,98694.75
2023-05-19T09:35:57.041Z,98693.44
2023-05-19T09:38:27.870Z,98682.81
2023-05-19T09:41:09.173Z,98687.38
2023-05-19T09:43:36.806Z,98682.97
2023-05-19T09:46:14.477Z,98686.06
2023-05-19T09:48:44.140Z,98685.84
2023-05-19T09:51:11.912Z,98677.97
2023-05-19T09:53:42.170Z,98668.03
2023-05-19T09:56:10.202Z,98682.66
2023-05-19T09:58:39.263Z,98678.84
2023-05-19T10:01:06.825Z,98685.25
2023-05-19T10:03:34.476Z,98677.81
2023-05-19T10:06:02.066Z,98688.47
2023-05-19T10:08:37.459Z,98682.06
2023-05-19T10:11:06.535Z,98681.59
2023-05-19T10:13:36.190Z,98681.63
2023-05-19T10:16:03.810Z,98686.12
2023-05-19T10:18:31.329Z,98682.37
2023-05-19T10:20:59.353Z,98692.47
2023-05-19T10:23:26.773Z,98699.78
2023-05-19T10:25:57.128Z,98688.06
2023-05-19T10:28:35.404Z,98684.81
2023-05-19T10:31:03.074Z,98687.38
2023-05-19T10:33:43.336Z,98682.53
2023-05-19T10:36:31.466Z,98690.13
2023-05-19T10:39:17.389Z,98682.75
2023-05-19T10:41:56.463Z,98675.63
2023-05-19T10:44:35.529Z,98678.59
2023-05-19T10:47:02.732Z,98683.37
2023-05-19T10:49:35.751Z,98676.84
2023-05-19T10:52:02.711Z,98671.34
2023-05-19T10:54:47.950Z,98674.91
2023-05-19T10:57:18.326Z,98672.97
2023-05-19T10:59:45.488Z,98670.97
2023-05-19T11:02:40.172Z,98662.88
2023-05-19T11:05:15.190Z,98664.56
2023-05-19T11:07:44.422Z,98656.91
2023-05-19T11:10:11.889Z,98672.69
2023-05-19T11:12:44.101Z,98668.25
2023-05-19T11:15:15.347Z,98661.84
2023-05-19T11:17:43.455Z,98673.94
2023-05-19T11:20:22.366Z,98666.97
2023-05-19T11:23:22.055Z,98665.03
2023-05-19T11:25:51.505Z,98668.50
2023-05-19T11:28:19.980Z,98664.12
2023-05-19T11:30:50.811Z,98666.13
2023-05-19T11:33:20.837Z,98671.19
2023-05-19T11:35:49.948Z,98670.50
2023-05-19T11:38:21.217Z,98680.50
2023-05-19T11:40:49.984Z,98677.63
2023-05-19T11:43:17.258Z,98674.25
2023-05-19T11:45:46.024Z,98677.34
2023-05-19T11:48:14.027Z,98670.84
2023-05-19T11:50:41.830Z,98673.84
2023-05-19T11:53:08.753Z,98666.13
2023-05-19T11:55:35.609Z,98662.25
2023-05-19T11:58:05.438Z,98668.63
2023-05-19T12:00:42.874Z,98665.06
2023-05-19T12:03:09.927Z,98659.31
2023-05-19T12:05:42.879Z,98666.47
2023-05-19T12:08:11.779Z,98662.84
2023-05-19T12:10:41.882Z,98650.94
2023-05-19T12:13:12.080Z,98656.28
2023-05-19T12:15:39.550Z,98651.72
2023-05-19T12:18:12.199Z,98651.56
2023-05-19T12:20:44.136Z,98650.72
2023-05-19T12:23:16.965Z,98654.22
2023-05-19T12:25:44.440Z,98645.03
2023-05-19T12:28:16.570Z,98636.78
2023-05-19T12:30:55.293Z,98643.72
2023-05-19T12:33:27.730Z,98645.00
2023-05-19T12:36:00.627Z,98635.38
2023-05-19T12:38:32.862Z,98635.97
2023-05-19T12:41:00.357Z,98625.44
2023-05-19T12:43:27.780Z,98616.81
2023-05-19T12:45:54.721Z,98621.75
2023-05-19T12:48:29.756Z,98618.53
2023-05-19T12:50:56.841Z,98615.66
2023-05-19T12:53:26.826Z,98611.44
2023-05-19T12:55:54.075Z,98612.84
2023-05-19T12:58:23.080Z,98611.91
2023-05-19T13:00:50.766Z,98612.22
2023-05-19T13:03:22.348Z,98620.69
2023-05-19T13:05:51.192Z,98613.19
2023-05-19T13:08:21.794Z,98609.34
2023-05-19T13:10:49.856Z,98609.06
2023-05-19T13:13:17.040Z,98609.13
2023-05-19T13:15:45.523Z,98608.84
2023-05-19T13:18:13.527Z,98605.56
2023-05-19T13:20:41.802Z,98600.53
2023-05-19T13:23:11.204Z,98613.78
2023-05-19T13:25:38.194Z,98619.34
2023-05-19T13:28:06.039Z,98616.38
2023-05-19T13:30:34.665Z,98620.25
2023-05-19T13:33:03.055Z,98619.06
2023-05-19T13:35:31.535Z,98617.66
2023-05-19T13:37:58.603Z,98612.13
2023-05-19T13:40:28.320Z,98612.81
2023-05-19T13:42:55.246Z,98620.28
2023-05-19T13:45:22.146Z,98604.19
2023-05-19T13:47:49.425Z,98617.34
2023-05-19T13:50:18.957Z,98606.25
2023-05-19T13:52:45.818Z,98606.41
2023-05-19T13:55:12.715Z,98599.88
2023-05-19T13:57:40.297Z,98599.03
2023-05-19T14:00:08.701Z,98598.44
2023-05-19T14:02:36.429Z,98599.13
2023-05-19T14:05:03.708Z,98597.31
2023-05-19T14:07:30.786Z,98592.91
2023-05-19T14:09:57.717Z,98596.88
2023-05-19T14:12:35.368Z,98589.09
2023-05-19T14:15:03.965Z,98588.00
2023-05-19T14:17:30.908Z,98582.91
2023-05-19T14:19:57.864Z,98584.69
2023-05-19T14:22:24.760Z,98583.59
2023-05-19T14:24:51.650Z,98575.09
2023-05-19T14:27:18.539Z,98567.81
2023-05-19T14:29:45.919Z,98569.06
2023-05-19T14:32:13.866Z,98572.66
2023-05-19T14:34:40.772Z,98570.81
2023-05-19T14:37:07.714Z,98572.44
2023-05-19T14:39:34.592Z,98564.88
2023-05-19T14:42:01.646Z,98568.34
2023-05-19T14:44:33.222Z,98562.75
2023-05-19T14:47:01.984Z,98568.47
2023-05-19T14:49:28.916Z,98570.72
2023-05-19T14:51:55.862Z,98567.97
2023-05-19T14:54:23.011Z,98567.34
2023-05-19T14:56:49.910Z,98561.84
2023-05-19T14:59:16.768Z,98564.84
2023-05-19T15:01:43.810Z,98560.34
2023-05-19T15:04:10.851Z,98560.03
2023-05-19T15:06:37.731Z,98563.59
2023-05-19T15:09:04.650Z,98557.34
2023-05-19T15:11:31.590Z,98558.69
2023-05-19T15:13:58.517Z,98561.56
2023-05-19T15:16:25.776Z,98560.06
2023-05-19T15:18:52.775Z,98560.41
2023-05-19T15:21:19.723Z,98550.91
2023-05-19T15:23:46.605Z,98548.62
2023-05-19T15:26:13.634Z,98565.59
2023-05-19T15:28:40.829Z,98557.81
2023-05-19T15:31:07.859Z,98563.38
2023-05-19T15:33:35.373Z,98560.19
2023-05-19T15:36:02.222Z,98559.59
2023-05-19T15:38:30.084Z,98552.28
2023-05-19T15:40:57.545Z,98553.69
2023-05-19T15:43:25.415Z,98547.81
2023-05-19T15:45:55.101Z,98553.75
2023-05-19T15:48:22.099Z,98546.59
2023-05-19T15:50:49.052Z,98544.25
2023-05-19T15:53:16.015Z,98541.75
2023-05-19T15:55:42.927Z,98542.31
2023-05-19T15:58:09.861Z,98539.50
2023-05-19T16:00:37.030Z,98536.72
2023-05-19T16:03:03.973Z,98538.69
2023-05-19T16:05:31.041Z,98537.28
2023-05-19T16:07:57.992Z,98540.31
2023-05-19T16:10:24.896Z,98539.94
2023-05-19T16:12:51.821Z,98537.59
2023-05-19T16:15:18.839Z,98544.66
2023-05-19T16:17:45.838Z,98543.69
2023-05-19T16:20:13.025Z,98544.94
2023-05-19T16:22:39.903Z,98544.00
2023-05-19T16:25:07.637Z,98538.00
2023-05-19T16:27:34.629Z,98537.03
2023-05-19T16:30:02.680Z,98532.97
2023-05-19T16:32:29.662Z,98539.59
2023-05-19T16:34:56.638Z,98544.50
2023-05-19T16:37:23.529Z,98544.19
2023-05-19T16:39:50.490Z,98541.75
2023-05-19T16:42:17.924Z,98539.53
2023-05-19T16:44:44.830Z,98542.53
2023-05-19T16:47:11.725Z,98542.16
2023-05-19T16:49:40.539Z,98540.34
2023-05-19T16:52:08.114Z,98537.03
2023-05-19T16:54:35.060Z,98536.19
2023-05-19T16:57:02.510Z,98532.44
2023-05-19T16:59:29.503Z,98542.84
2023-05-19T17:01:57.028Z,98543.13
2023-05-19T17:04:24.254Z,98544.81
2023-05-19T17:06:51.226Z,98541.91
2023-05-19T17:09:18.326Z,98541.78
2023-05-19T17:11:45.237Z,98540.63
2023-05-19T17:14:12.078Z,98541.34
2023-05-19T17:16:39.069Z,98537.00
2023-05-19T17:19:06.004Z,98537.44
2023-05-19T17:21:33.825Z,98539.53
2023-05-19T17:24:01.163Z,98536.06
2023-05-19T17:26:28.078Z,98540.06
2023-05-19T17:28:55.321Z,98541.16
2023-05-19T17:31:22.293Z,98547.03
2023-05-19T17:33:49.232Z,98544.38
2023-05-19T17:36:16.169Z,98535.06
2023-05-19T17:38:43.114Z,98532.72
2023-05-19T17:41:10.215Z,98533.53
2023-05-19T17:43:38.149Z,98534.81
2023-05-19T17:46:05.685Z,98532.19
2023-05-19T17:48:32.901Z,98532.19
2023-05-19T17:51:00.238Z,98530.84
2023-05-19T17:53:27.523Z,98535.66
2023-05-19T17:55:59.571Z,98532.13
2023-05-19T17:58:27.022Z,98528.91
2023-05-19T18:00:54.543Z,98528.91
2023-05-19T18:03:25.021Z,98534.00
2023-05-19T18:05:52.241Z,98533.16
2023-05-19T18:08:19.525Z,98540.78
2023-05-19T18:10:48.640Z,98534.50
2023-05-19T18:13:15.563Z,98545.53
2023-05-19T18:15:42.587Z,98541.75
2023-05-19T18:18:11.027Z,98531.97
2023-05-19T18:20:38.896Z,98540.03
2023-05-19T18:23:06.135Z,98543.94
2023-05-19T18:25:33.104Z,98537.03
2023-05-19T18:28:00.015Z,98534.66
2023-05-19T18:30:26.920Z,98540.50
2023-05-19T18:32:53.909Z,98541.31
2023-05-19T18:35:23.737Z,98536.91
2023-05-19T18:37:50.823Z,98536.16
2023-05-19T18:40:17.795Z,98537.47
2023-05-19T18:42:44.674Z,98547.78
2023-05-19T18:45:11.946Z,98551.81
2023-05-19T18:47:38.825Z,98542.06
2023-05-19T18:50:07.122Z,98542.12
2023-05-19T18:52:34.035Z,98546.81
2023-05-19T18:55:01.344Z,98550.03
2023-05-19T18:57:28.387Z,98550.56
2023-05-19T18:59:55.309Z,98552.28
2023-05-19T19:02:22.269Z,98548.69
2023-05-19T19:04:49.310Z,98554.06
2023-05-19T19:07:16.296Z,98558.00
2023-05-19T19:09:43.960Z,98568.50
2023-05-19T19:12:11.271Z,98562.56
2023-05-19T19:14:38.665Z,98560.16
2023-05-19T19:17:05.802Z,98560.06
2023-05-19T19:19:32.981Z,98551.94
2023-05-19T19:21:59.965Z,98549.03
2023-05-19T19:24:28.689Z,98550.66
2023-05-19T19:26:55.686Z,98548.81
2023-05-19T19:29:22.644Z,98551.44
2023-05-19T19:31:49.688Z,98548.41
2023-05-19T19:34:19.881Z,98548.22
2023-05-19T19:36:47.991Z,98542.66
2023-05-19T19:39:14.946Z,98548.25
2023-05-19T19:41:41.968Z,98550.56
2023-05-19T19:44:09.036Z,98546.81
2023-05-19T19:46:36.099Z,98545.16
2023-05-19T19:49:03.228Z,98549.97
2023-05-19T19:51:30.203Z,98555.16
2023-05-19T19:53:57.259Z,98553.59
2023-05-19T19:56:25.235Z,98553.19
2023-05-19T19:58:52.100Z,98556.53
2023-05-19T20:01:23.756Z,98557.72
2023-05-19T20:03:50.956Z,98552.53
2023-05-19T20:06:17.988Z,98561.53
2023-05-19T20:08:44.893Z,98560.87
2023-05-19T20:11:11.801Z,98557.62
2023-05-19T20:13:38.738Z,98557.19
2023-05-19T20:16:05.724Z,98556.34
2023-05-19T20:18:32.841Z,98558.94
2023-05-19T20:20:59.749Z,98550.28
2023-05-19T20:23:26.638Z,98566.31
2023-05-19T20:26:10.161Z,98564.16
2023-05-19T20:28:38.545Z,98558.69
2023-05-19T20:31:06.499Z,98562.63
2023-05-19T20:33:33.478Z,98552.69
2023-05-19T20:36:00.452Z,98542.19
2023-05-19T20:38:27.405Z,98546.69
2023-05-19T20:40:54.896Z,98538.59
2023-05-19T20:43:21.896Z,98537.09
2023-05-19T20:45:48.941Z,98545.78
2023-05-19T20:48:16.182Z,98543.25
2023-05-19T20:50:43.267Z,98541.03
2023-05-19T20:53:10.174Z,98538.06
2023-05-19T20:55:38.789Z,98541.59
2023-05-19T20:58:08.618Z,98543.53
2023-05-19T21:00:36.076Z,98532.53
2023-05-19T21:03:03.500Z,98536.00
2023-05-19T21:05:30.597Z,98535.81
2023-05-19T21:07:57.522Z,98536.72
2023-05-19T21:10:24.498Z,98532.84
2023-05-19T21:12:51.385Z,98527.94
2023-05-19T21:15:18.544Z,98534.03
2023-05-19T21:17:45.464Z,98535.66
2023-05-19T21:20:12.678Z,98532.78
2023-05-19T21:22:40.999Z,98537.28
2023-05-19T21:25:08.199Z,98548.75
2023-05-19T21:27:36.420Z,98544.97
2023-05-19T21:30:03.554Z,98547.59
2023-05-19T21:32:30.659Z,98542.59
2023-05-19T21:34:57.728Z,98551.47
2023-05-19T21:37:24.671Z,98547.50
2023-05-19T21:39:51.705Z,98540.22
2023-05-19T21:42:18.786Z,98544.16
2023-05-19T21:44:45.828Z,98537.28
2023-05-19T21:47:12.678Z,98542.63
2023-05-19T21:49:40.350Z,98542.75
2023-05-19T21:52:07.972Z,98540.38
2023-05-19T21:54:35.129Z,98542.69
2023-05-19T21:57:02.553Z,98545.59
2023-05-19T21:59:29.484Z,98546.69
2023-05-19T22:01:56.465Z,98549.56
2023-05-19T22:04:23.386Z,98550.75
2023-05-19T22:06:50.300Z,98550.22
2023-05-19T22:09:17.205Z,98549.78
2023-05-19T22:11:44.086Z,98550.81
2023-05-19T22:14:11.332Z,98540.06
2023-05-19T22:16:38.386Z,98539.13
2023-05-19T22:19:05.551Z,98542.16
2023-05-19T22:21:32.616Z,98540.88
2023-05-19T22:23:59.500Z,98536.22
2023-05-19T22:26:27.310Z,98539.00
2023-05-19T22:28:54.260Z,98531.63
2023-05-19T22:31:21.692Z,98531.06
2023-05-19T22:33:48.620Z,98531.91
2023-05-19T22:36:16.416Z,98528.56
2023-05-19T22:38:43.400Z,98527.22
2023-05-19T22:41:10.443Z,98522.00
2023-05-19T22:43:37.365Z,98522.31
2023-05-19T22:46:04.527Z,98523.56
2023-05-19T22:48:31.774Z,98527.69
2023-05-19T22:50:58.687Z,98513.50
2023-05-19T22:53:25.584Z,98519.97
2023-05-19T22:55:52.540Z,98520.25
2023-05-19T22:58:19.428Z,98511.62
2023-05-19T23:00:46.563Z,98513.59
2023-05-19T23:03:13.554Z,98511.59
2023-05-19T23:05:40.713Z,98515.69
2023-05-19T23:08:07.609Z,98511.38
2023-05-19T23:10:34.547Z,98504.50
2023-05-19T23:13:01.423Z,98507.13
2023-05-19T23:15:28.323Z,98504.50
2023-05-19T23:17:55.339Z,98496.16
2023-05-19T23:20:22.295Z,98496.44
2023-05-19T23:22:49.226Z,98496.94
2023-05-19T23:25:16.232Z,98496.16
2023-05-19T23:27:43.197Z,98490.63
2023-05-19T23:30:10.230Z,98490.28
2023-05-19T23:32:37.194Z,98485.81
2023-05-19T23:35:14.802Z,98489.50
2023-05-19T23:37:41.815Z,98482.84
2023-05-19T23:40:09.385Z,98479.84
2023-05-19T23:42:36.843Z,98475.78
2023-05-19T23:45:04.347Z,98471.81
2023-05-19T23:47:31.473Z,98466.59
2023-05-19T23:49:58.382Z,98468.53
2023-05-19T23:52:25.316Z,98469.06
2023-05-19T23:54:52.247Z,98476.94
2023-05-19T23:57:19.171Z,98464.97
2023-05-19T23:59:46.224Z,98463.34
